Caro, Michigan
Current Conditions -  °F | °C
As of 2:35 PM on Saturday 20 Dec 2014 (Local Time) from KCFS Reporting Station
Overcast Overcast  
Wind Chill: 32°   Ceiling: 2300
Heat Index: 32°   Visibility: 10mi
Dew Point: 22°   Wind: 3mph
Humidity: 69%   Direction: 300°WNW
Pressure: 30.26"   Gusts: NA
Location:  43.49°N, 83.4°W
Report Text: KCFS 201935Z AUTO 30003KT 10SM OVC023 00/M05 A3026 RMK AO2 T10021053
Loading
Personal Weather Stations






























Interactive Weather Map New forecast layout! Learn more

10-Day Weather Forecast

Advertisements
Track Severe Weather on mobile